sensor_id;sensor_type;location;lat;lon;timestamp;pressure;altitude;pressure_sealevel;temperature;humidity
20444;BME280;10381;53.730;10.010;2023-07-22T00:01:36;101589.25;;;11.94;100.00
20444;BME280;10381;53.730;10.010;2023-07-22T00:05:37;101590.81;;;11.85;100.00
20444;BME280;10381;53.730;10.010;2023-07-22T00:09:37;101588.91;;;11.76;100.00
20444;BME280;10381;53.730;10.010;2023-07-22T00:13:38;101588.91;;;11.76;100.00
20444;BME280;10381;53.730;10.010;2023-07-22T00:17:40;101589.75;;;11.77;100.00
20444;BME280;10381;53.730;10.010;2023-07-22T00:21:41;101588.16;;;11.85;100.00
20444;BME280;10381;53.730;10.010;2023-07-22T00:25:41;101599.41;;;11.89;100.00
20444;BME280;10381;53.730;10.010;2023-07-22T00:29:42;101601.91;;;12.02;100.00
20444;BME280;10381;53.730;10.010;2023-07-22T00:33:42;101604.91;;;12.08;100.00
20444;BME280;10381;53.730;10.010;2023-07-22T00:37:42;101610.81;;;12.12;100.00
20444;BME280;10381;53.730;10.010;2023-07-22T00:41:43;101608.88;;;12.14;100.00
20444;BME280;10381;53.730;10.010;2023-07-22T00:45:44;101616.13;;;12.12;100.00
20444;BME280;10381;53.730;10.010;2023-07-22T00:49:48;101616.25;;;12.10;100.00
20444;BME280;10381;53.730;10.010;2023-07-22T00:53:49;101624.94;;;12.12;100.00
20444;BME280;10381;53.730;10.010;2023-07-22T00:57:49;101612.75;;;12.10;100.00
20444;BME280;10381;53.730;10.010;2023-07-22T01:01:50;101613.59;;;12.10;100.00
20444;BME280;10381;53.730;10.010;2023-07-22T01:05:50;101616.38;;;12.09;100.00
20444;BME280;10381;53.730;10.010;2023-07-22T01:09:56;101620.25;;;12.05;100.00
20444;BME280;10381;53.730;10.010;2023-07-22T01:13:56;101618.81;;;12.01;100.00
20444;BME280;10381;53.730;10.010;2023-07-22T01:18:00;101621.22;;;11.92;100.00
20444;BME280;10381;53.730;10.010;2023-07-22T01:22:04;101617.28;;;11.87;100.00
20444;BME280;10381;53.730;10.010;2023-07-22T01:26:05;101613.75;;;11.75;100.00
20444;BME280;10381;53.730;10.010;2023-07-22T01:30:06;101620.78;;;11.76;100.00
20444;BME280;10381;53.730;10.010;2023-07-22T01:34:09;101616.06;;;11.68;100.00
20444;BME280;10381;53.730;10.010;2023-07-22T01:38:10;101613.41;;;11.68;100.00
20444;BME280;10381;53.730;10.010;2023-07-22T01:42:10;101626.56;;;11.70;100.00
20444;BME280;10381;53.730;10.010;2023-07-22T01:46:10;101620.16;;;11.72;100.00
20444;BME280;10381;53.730;10.010;2023-07-22T01:50:10;101617.13;;;11.66;100.00
20444;BME280;10381;53.730;10.010;2023-07-22T01:54:11;101615.56;;;11.63;100.00
20444;BME280;10381;53.730;10.010;2023-07-22T01:58:12;101626.56;;;11.70;100.00
20444;BME280;10381;53.730;10.010;2023-07-22T02:02:13;101624.88;;;11.58;100.00
20444;BME280;10381;53.730;10.010;2023-07-22T02:06:13;101619.56;;;11.58;100.00
20444;BME280;10381;53.730;10.010;2023-07-22T02:10:14;101622.09;;;11.59;100.00
20444;BME280;10381;53.730;10.010;2023-07-22T02:14:14;101626.22;;;11.52;100.00
20444;BME280;10381;53.730;10.010;2023-07-22T02:18:14;101621.63;;;11.43;100.00
20444;BME280;10381;53.730;10.010;2023-07-22T02:22:14;101621.84;;;11.40;100.00
20444;BME280;10381;53.730;10.010;2023-07-22T02:26:15;101608.47;;;11.30;100.00
20444;BME280;10381;53.730;10.010;2023-07-22T02:30:15;101621.00;;;11.17;100.00
20444;BME280;10381;53.730;10.010;2023-07-22T02:34:15;101616.44;;;11.19;100.00
20444;BME280;10381;53.730;10.010;2023-07-22T02:38:16;101636.78;;;11.18;100.00
20444;BME280;10381;53.730;10.010;2023-07-22T02:42:17;101625.59;;;11.15;100.00
20444;BME280;10381;53.730;10.010;2023-07-22T02:46:17;101627.25;;;11.16;100.00
20444;BME280;10381;53.730;10.010;2023-07-22T02:50:18;101627.63;;;11.22;100.00
20444;BME280;10381;53.730;10.010;2023-07-22T02:54:18;101623.91;;;11.25;100.00
20444;BME280;10381;53.730;10.010;2023-07-22T02:58:18;101619.31;;;11.27;100.00
20444;BME280;10381;53.730;10.010;2023-07-22T03:02:18;101614.03;;;11.27;100.00
20444;BME280;10381;53.730;10.010;2023-07-22T03:06:19;101615.00;;;11.26;100.00
20444;BME280;10381;53.730;10.010;2023-07-22T03:10:19;101605.47;;;11.12;100.00
20444;BME280;10381;53.730;10.010;2023-07-22T03:14:19;101606.53;;;11.09;100.00
20444;BME280;10381;53.730;10.010;2023-07-22T03:18:22;101611.84;;;11.09;100.00
20444;BME280;10381;53.730;10.010;2023-07-22T03:22:22;101621.97;;;11.04;100.00
20444;BME280;10381;53.730;10.010;2023-07-22T03:26:22;101623.88;;;11.02;100.00
20444;BME280;10381;53.730;10.010;2023-07-22T03:30:23;101615.19;;;11.00;100.00
20444;BME280;10381;53.730;10.010;2023-07-22T03:34:23;101614.72;;;10.95;100.00
20444;BME280;10381;53.730;10.010;2023-07-22T03:38:23;101625.31;;;10.95;100.00
20444;BME280;10381;53.730;10.010;2023-07-22T03:42:24;101626.53;;;11.02;100.00
20444;BME280;10381;53.730;10.010;2023-07-22T03:46:24;101617.00;;;11.00;100.00
20444;BME280;10381;53.730;10.010;2023-07-22T03:50:25;101626.16;;;10.96;100.00
20444;BME280;10381;53.730;10.010;2023-07-22T03:54:26;101641.13;;;10.97;100.00
20444;BME280;10381;53.730;10.010;2023-07-22T03:58:26;101646.28;;;10.98;100.00
20444;BME280;10381;53.730;10.010;2023-07-22T04:02:26;101658.13;;;11.05;100.00
20444;BME280;10381;53.730;10.010;2023-07-22T04:06:26;101651.38;;;11.13;100.00
20444;BME280;10381;53.730;10.010;2023-07-22T04:10:27;101653.19;;;11.12;100.00
20444;BME280;10381;53.730;10.010;2023-07-22T04:14:27;101650.19;;;11.17;100.00
20444;BME280;10381;53.730;10.010;2023-07-22T04:18:27;101657.56;;;11.24;100.00
20444;BME280;10381;53.730;10.010;2023-07-22T04:22:33;101653.09;;;11.25;100.00
20444;BME280;10381;53.730;10.010;2023-07-22T04:26:33;101668.53;;;11.31;100.00
20444;BME280;10381;53.730;10.010;2023-07-22T04:30:35;101668.16;;;11.47;100.00
20444;BME280;10381;53.730;10.010;2023-07-22T04:34:35;101667.44;;;11.56;100.00
20444;BME280;10381;53.730;10.010;2023-07-22T04:38:35;101651.66;;;11.55;100.00
20444;BME280;10381;53.730;10.010;2023-07-22T04:42:36;101658.28;;;11.49;100.00
20444;BME280;10381;53.730;10.010;2023-07-22T04:46:36;101652.59;;;11.42;100.00
20444;BME280;10381;53.730;10.010;2023-07-22T04:50:36;101662.88;;;11.36;100.00
20444;BME280;10381;53.730;10.010;2023-07-22T04:54:41;101676.50;;;11.54;100.00
20444;BME280;10381;53.730;10.010;2023-07-22T04:58:42;101684.47;;;11.65;100.00
20444;BME280;10381;53.730;10.010;2023-07-22T05:02:43;101694.28;;;11.98;100.00
20444;BME280;10381;53.730;10.010;2023-07-22T05:06:44;101677.88;;;11.93;100.00
20444;BME280;10381;53.730;10.010;2023-07-22T05:10:44;101677.81;;;12.04;100.00
20444;BME280;10381;53.730;10.010;2023-07-22T05:14:45;101682.22;;;12.38;100.00
20444;BME280;10381;53.730;10.010;2023-07-22T05:18:45;101692.22;;;12.45;100.00
20444;BME280;10381;53.730;10.010;2023-07-22T05:22:46;101687.91;;;12.33;100.00
20444;BME280;10381;53.730;10.010;2023-07-22T05:26:46;101682.56;;;12.01;100.00
20444;BME280;10381;53.730;10.010;2023-07-22T05:30:47;101699.28;;;12.24;100.00
20444;BME280;10381;53.730;10.010;2023-07-22T05:34:48;101691.09;;;12.27;100.00
20444;BME280;10381;53.730;10.010;2023-07-22T05:38:48;101697.34;;;12.26;100.00
20444;BME280;10381;53.730;10.010;2023-07-22T05:42:48;101710.81;;;12.56;100.00
20444;BME280;10381;53.730;10.010;2023-07-22T05:46:49;101707.06;;;12.48;100.00
20444;BME280;10381;53.730;10.010;2023-07-22T05:50:49;101711.72;;;12.67;100.00
20444;BME280;10381;53.730;10.010;2023-07-22T05:54:49;101713.63;;;12.76;100.00
20444;BME280;10381;53.730;10.010;2023-07-22T05:58:50;101712.56;;;12.67;100.00
20444;BME280;10381;53.730;10.010;2023-07-22T06:02:50;101717.13;;;13.30;100.00
20444;BME280;10381;53.730;10.010;2023-07-22T06:06:50;101704.88;;;13.69;100.00
20444;BME280;10381;53.730;10.010;2023-07-22T06:10:50;101685.50;;;13.36;100.00
20444;BME280;10381;53.730;10.010;2023-07-22T06:14:51;101676.50;;;13.58;100.00
20444;BME280;10381;53.730;10.010;2023-07-22T06:18:51;101658.78;;;13.69;100.00
20444;BME280;10381;53.730;10.010;2023-07-22T06:22:51;101627.69;;;13.79;100.00
20444;BME280;10381;53.730;10.010;2023-07-22T06:26:52;101621.16;;;14.02;100.00
20444;BME280;10381;53.730;10.010;2023-07-22T06:30:52;101613.03;;;14.43;100.00
20444;BME280;10381;53.730;10.010;2023-07-22T06:34:52;101582.56;;;14.06;100.00
20444;BME280;10381;53.730;10.010;2023-07-22T06:38:53;101556.63;;;14.09;100.00
20444;BME280;10381;53.730;10.010;2023-07-22T06:42:54;101524.66;;;14.28;100.00
20444;BME280;10381;53.730;10.010;2023-07-22T06:46:55;101513.28;;;14.65;100.00
20444;BME280;10381;53.730;10.010;2023-07-22T06:50:55;101475.66;;;14.58;100.00
20444;BME280;10381;53.730;10.010;2023-07-22T06:54:57;101446.03;;;14.52;100.00
20444;BME280;10381;53.730;10.010;2023-07-22T06:58:57;101424.50;;;15.28;100.00
20444;BME280;10381;53.730;10.010;2023-07-22T07:02:57;101391.94;;;16.04;100.00
20444;BME280;10381;53.730;10.010;2023-07-22T07:06:58;101339.34;;;15.79;100.00
20444;BME280;10381;53.730;10.010;2023-07-22T07:10:59;101296.59;;;15.17;100.00
20444;BME280;10381;53.730;10.010;2023-07-22T07:15:01;101325.56;;;15.11;100.00
20444;BME280;10381;53.730;10.010;2023-07-22T07:19:01;101334.69;;;14.73;100.00
20444;BME280;10381;53.730;10.010;2023-07-22T07:23:02;101356.78;;;14.83;100.00
20444;BME280;10381;53.730;10.010;2023-07-22T07:27:02;101374.06;;;15.07;100.00
20444;BME280;10381;53.730;10.010;2023-07-22T07:31:03;101337.63;;;15.33;100.00
20444;BME280;10381;53.730;10.010;2023-07-22T07:35:03;101307.97;;;15.63;100.00
20444;BME280;10381;53.730;10.010;2023-07-22T07:39:04;101301.94;;;16.05;100.00
20444;BME280;10381;53.730;10.010;2023-07-22T07:43:04;101262.56;;;15.81;100.00
20444;BME280;10381;53.730;10.010;2023-07-22T07:47:04;101249.66;;;16.02;100.00
20444;BME280;10381;53.730;10.010;2023-07-22T07:51:05;101228.91;;;15.96;100.00
20444;BME280;10381;53.730;10.010;2023-07-22T07:55:05;101227.38;;;15.67;100.00
20444;BME280;10381;53.730;10.010;2023-07-22T07:59:06;101224.09;;;16.00;100.00
20444;BME280;10381;53.730;10.010;2023-07-22T08:03:08;101185.94;;;15.89;100.00
20444;BME280;10381;53.730;10.010;2023-07-22T08:07:09;101178.81;;;16.06;100.00
20444;BME280;10381;53.730;10.010;2023-07-22T08:11:11;101176.69;;;16.93;100.00
20444;BME280;10381;53.730;10.010;2023-07-22T08:15:13;101151.31;;;16.14;100.00
20444;BME280;10381;53.730;10.010;2023-07-22T08:19:13;101174.81;;;16.86;100.00
20444;BME280;10381;53.730;10.010;2023-07-22T08:23:14;101153.19;;;16.38;100.00
20444;BME280;10381;53.730;10.010;2023-07-22T08:27:14;101169.88;;;16.40;100.00
20444;BME280;10381;53.730;10.010;2023-07-22T08:31:15;101146.41;;;16.01;100.00
20444;BME280;10381;53.730;10.010;2023-07-22T08:35:15;101147.53;;;16.66;100.00
20444;BME280;10381;53.730;10.010;2023-07-22T08:39:18;101129.34;;;15.94;100.00
20444;BME280;10381;53.730;10.010;2023-07-22T08:43:20;101161.56;;;16.43;100.00
20444;BME280;10381;53.730;10.010;2023-07-22T08:47:21;101149.31;;;16.24;100.00
20444;BME280;10381;53.730;10.010;2023-07-22T08:51:23;101183.66;;;17.35;100.00
20444;BME280;10381;53.730;10.010;2023-07-22T08:55:25;101133.66;;;16.95;100.00
20444;BME280;10381;53.730;10.010;2023-07-22T08:59:25;101126.81;;;16.92;100.00
20444;BME280;10381;53.730;10.010;2023-07-22T09:03:26;101135.69;;;16.85;100.00
20444;BME280;10381;53.730;10.010;2023-07-22T09:07:26;101124.44;;;17.14;100.00
20444;BME280;10381;53.730;10.010;2023-07-22T09:11:26;101116.25;;;16.58;100.00
20444;BME280;10381;53.730;10.010;2023-07-22T09:15:27;101108.69;;;17.27;100.00
20444;BME280;10381;53.730;10.010;2023-07-22T09:19:29;101107.31;;;17.31;100.00
20444;BME280;10381;53.730;10.010;2023-07-22T09:23:34;101111.03;;;17.22;100.00
20444;BME280;10381;53.730;10.010;2023-07-22T09:27:34;101107.00;;;17.34;100.00
20444;BME280;10381;53.730;10.010;2023-07-22T09:31:48;101078.88;;;17.30;100.00
20444;BME280;10381;53.730;10.010;2023-07-22T09:35:49;101071.84;;;17.37;100.00
20444;BME280;10381;53.730;10.010;2023-07-22T09:39:49;101075.50;;;17.44;100.00
20444;BME280;10381;53.730;10.010;2023-07-22T09:43:50;101079.72;;;17.70;100.00
20444;BME280;10381;53.730;10.010;2023-07-22T09:47:52;101081.69;;;17.76;100.00
20444;BME280;10381;53.730;10.010;2023-07-22T09:51:52;101069.31;;;17.36;100.00
20444;BME280;10381;53.730;10.010;2023-07-22T09:55:52;101074.91;;;17.57;100.00
20444;BME280;10381;53.730;10.010;2023-07-22T09:59:53;101076.09;;;17.55;100.00
20444;BME280;10381;53.730;10.010;2023-07-22T10:03:55;101062.09;;;18.30;100.00
20444;BME280;10381;53.730;10.010;2023-07-22T10:07:59;101046.75;;;18.24;100.00
20444;BME280;10381;53.730;10.010;2023-07-22T10:11:59;101052.84;;;18.79;100.00
20444;BME280;10381;53.730;10.010;2023-07-22T10:16:00;101045.59;;;18.41;100.00
20444;BME280;10381;53.730;10.010;2023-07-22T10:20:02;101047.75;;;18.23;100.00
20444;BME280;10381;53.730;10.010;2023-07-22T10:24:06;101023.59;;;18.23;100.00
20444;BME280;10381;53.730;10.010;2023-07-22T10:28:08;101018.03;;;18.09;100.00
20444;BME280;10381;53.730;10.010;2023-07-22T10:32:08;101025.94;;;18.26;100.00
20444;BME280;10381;53.730;10.010;2023-07-22T10:36:13;100970.19;;;18.36;100.00
20444;BME280;10381;53.730;10.010;2023-07-22T10:40:27;100985.78;;;18.70;100.00
20444;BME280;10381;53.730;10.010;2023-07-22T10:44:30;100992.03;;;18.86;100.00
20444;BME280;10381;53.730;10.010;2023-07-22T10:48:38;100985.13;;;18.68;100.00
20444;BME280;10381;53.730;10.010;2023-07-22T10:52:50;100971.25;;;19.09;100.00
20444;BME280;10381;53.730;10.010;2023-07-22T10:56:50;100967.38;;;18.67;100.00
20444;BME280;10381;53.730;10.010;2023-07-22T11:00:50;100978.72;;;19.29;100.00
20444;BME280;10381;53.730;10.010;2023-07-22T11:04:51;100968.59;;;18.94;100.00
20444;BME280;10381;53.730;10.010;2023-07-22T11:08:51;100956.28;;;19.15;100.00
20444;BME280;10381;53.730;10.010;2023-07-22T11:12:51;100908.63;;;19.24;100.00
20444;BME280;10381;53.730;10.010;2023-07-22T11:16:52;100885.94;;;19.48;100.00
20444;BME280;10381;53.730;10.010;2023-07-22T11:20:52;100870.84;;;18.89;100.00
20444;BME280;10381;53.730;10.010;2023-07-22T11:24:53;100859.66;;;18.85;100.00
20444;BME280;10381;53.730;10.010;2023-07-22T11:28:53;100853.25;;;19.23;100.00
20444;BME280;10381;53.730;10.010;2023-07-22T11:32:57;100849.50;;;19.02;100.00
20444;BME280;10381;53.730;10.010;2023-07-22T11:36:59;100834.41;;;18.80;100.00
20444;BME280;10381;53.730;10.010;2023-07-22T11:40:59;100830.63;;;19.53;100.00
20444;BME280;10381;53.730;10.010;2023-07-22T11:44:59;100818.53;;;20.20;100.00
20444;BME280;10381;53.730;10.010;2023-07-22T11:49:00;100832.22;;;19.26;100.00
20444;BME280;10381;53.730;10.010;2023-07-22T11:53:00;100832.22;;;20.26;100.00
20444;BME280;10381;53.730;10.010;2023-07-22T11:57:33;100823.44;;;19.82;100.00
20444;BME280;10381;53.730;10.010;2023-07-22T12:01:34;100820.78;;;19.39;100.00
20444;BME280;10381;53.730;10.010;2023-07-22T12:05:35;100838.34;;;18.99;100.00
20444;BME280;10381;53.730;10.010;2023-07-22T12:09:37;100829.50;;;19.05;100.00
20444;BME280;10381;53.730;10.010;2023-07-22T12:13:38;100828.19;;;19.15;100.00
20444;BME280;10381;53.730;10.010;2023-07-22T12:18:00;100835.91;;;18.38;100.00
20444;BME280;10381;53.730;10.010;2023-07-22T12:22:00;100840.16;;;18.02;100.00
20444;BME280;10381;53.730;10.010;2023-07-22T12:26:01;100843.31;;;18.21;100.00
20444;BME280;10381;53.730;10.010;2023-07-22T12:30:01;100847.13;;;17.88;100.00
20444;BME280;10381;53.730;10.010;2023-07-22T12:34:03;100861.44;;;17.81;100.00
20444;BME280;10381;53.730;10.010;2023-07-22T12:38:03;100871.75;;;18.07;100.00
20444;BME280;10381;53.730;10.010;2023-07-22T12:42:04;100882.69;;;18.20;100.00
20444;BME280;10381;53.730;10.010;2023-07-22T12:46:04;100907.41;;;17.46;100.00
20444;BME280;10381;53.730;10.010;2023-07-22T12:50:06;100986.81;;;16.83;100.00
20444;BME280;10381;53.730;10.010;2023-07-22T12:54:07;101078.66;;;16.43;100.00
20444;BME280;10381;53.730;10.010;2023-07-22T12:58:08;101217.81;;;15.30;100.00
20444;BME280;10381;53.730;10.010;2023-07-22T13:02:08;101385.81;;;14.96;100.00
20444;BME280;10381;53.730;10.010;2023-07-22T13:06:08;101496.25;;;14.76;100.00
20444;BME280;10381;53.730;10.010;2023-07-22T13:10:09;101591.16;;;14.68;100.00
20444;BME280;10381;53.730;10.010;2023-07-22T13:14:17;101631.84;;;14.80;100.00
20444;BME280;10381;53.730;10.010;2023-07-22T13:18:18;101641.66;;;14.99;100.00
20444;BME280;10381;53.730;10.010;2023-07-22T13:22:18;101645.16;;;15.00;100.00
20444;BME280;10381;53.730;10.010;2023-07-22T13:26:19;101654.53;;;15.23;100.00
20444;BME280;10381;53.730;10.010;2023-07-22T13:30:19;101650.59;;;15.55;100.00
20444;BME280;10381;53.730;10.010;2023-07-22T13:34:20;101644.91;;;16.05;100.00
20444;BME280;10381;53.730;10.010;2023-07-22T13:38:20;101612.66;;;16.60;100.00
20444;BME280;10381;53.730;10.010;2023-07-22T13:42:21;101551.16;;;16.69;100.00
20444;BME280;10381;53.730;10.010;2023-07-22T13:46:21;101512.34;;;16.38;100.00
20444;BME280;10381;53.730;10.010;2023-07-22T13:50:21;101522.63;;;16.51;100.00
20444;BME280;10381;53.730;10.010;2023-07-22T13:54:22;101513.16;;;15.95;100.00
20444;BME280;10381;53.730;10.010;2023-07-22T13:58:22;101528.81;;;15.90;100.00
20444;BME280;10381;53.730;10.010;2023-07-22T14:02:24;101544.00;;;15.89;100.00
20444;BME280;10381;53.730;10.010;2023-07-22T14:06:25;101560.00;;;15.44;100.00
20444;BME280;10381;53.730;10.010;2023-07-22T14:10:25;101589.47;;;15.15;100.00
20444;BME280;10381;53.730;10.010;2023-07-22T14:14:25;101612.97;;;15.11;100.00
20444;BME280;10381;53.730;10.010;2023-07-22T14:18:28;101636.56;;;15.53;100.00
20444;BME280;10381;53.730;10.010;2023-07-22T14:22:28;101643.38;;;15.38;100.00
20444;BME280;10381;53.730;10.010;2023-07-22T14:26:29;101650.69;;;15.36;100.00
20444;BME280;10381;53.730;10.010;2023-07-22T14:30:29;101649.47;;;15.20;100.00
20444;BME280;10381;53.730;10.010;2023-07-22T14:34:29;101647.94;;;14.98;100.00
20444;BME280;10381;53.730;10.010;2023-07-22T14:38:30;101651.09;;;14.94;100.00
20444;BME280;10381;53.730;10.010;2023-07-22T14:42:30;101663.28;;;14.96;100.00
20444;BME280;10381;53.730;10.010;2023-07-22T14:46:30;101673.00;;;14.78;100.00
20444;BME280;10381;53.730;10.010;2023-07-22T14:50:31;101684.63;;;14.77;100.00
20444;BME280;10381;53.730;10.010;2023-07-22T14:54:32;101683.50;;;14.60;100.00
20444;BME280;10381;53.730;10.010;2023-07-22T14:58:32;101690.53;;;14.61;100.00
20444;BME280;10381;53.730;10.010;2023-07-22T15:02:33;101689.69;;;14.80;100.00
20444;BME280;10381;53.730;10.010;2023-07-22T15:06:34;101691.94;;;15.04;100.00
20444;BME280;10381;53.730;10.010;2023-07-22T15:10:35;101673.81;;;14.88;100.00
20444;BME280;10381;53.730;10.010;2023-07-22T15:14:36;101659.63;;;14.97;100.00
20444;BME280;10381;53.730;10.010;2023-07-22T15:18:37;101653.03;;;15.01;100.00
20444;BME280;10381;53.730;10.010;2023-07-22T15:22:38;101657.94;;;15.06;100.00
20444;BME280;10381;53.730;10.010;2023-07-22T15:26:38;101663.69;;;15.11;100.00
20444;BME280;10381;53.730;10.010;2023-07-22T15:30:38;101653.16;;;15.00;100.00
20444;BME280;10381;53.730;10.010;2023-07-22T15:34:39;101658.78;;;15.06;100.00
20444;BME280;10381;53.730;10.010;2023-07-22T15:38:39;101666.84;;;15.34;100.00
20444;BME280;10381;53.730;10.010;2023-07-22T15:42:39;101649.66;;;15.46;100.00
20444;BME280;10381;53.730;10.010;2023-07-22T15:46:40;101629.78;;;15.21;100.00
20444;BME280;10381;53.730;10.010;2023-07-22T15:50:40;101633.63;;;15.09;100.00
20444;BME280;10381;53.730;10.010;2023-07-22T15:54:40;101643.97;;;15.22;100.00
20444;BME280;10381;53.730;10.010;2023-07-22T15:58:40;101650.13;;;15.32;100.00
20444;BME280;10381;53.730;10.010;2023-07-22T16:02:41;101646.06;;;15.28;100.00
20444;BME280;10381;53.730;10.010;2023-07-22T16:06:41;101665.59;;;15.28;100.00
20444;BME280;10381;53.730;10.010;2023-07-22T16:10:41;101671.13;;;15.07;100.00
20444;BME280;10381;53.730;10.010;2023-07-22T16:14:42;101689.38;;;15.02;100.00
20444;BME280;10381;53.730;10.010;2023-07-22T16:18:42;101700.38;;;14.89;100.00
20444;BME280;10381;53.730;10.010;2023-07-22T16:22:42;101729.44;;;14.73;100.00
20444;BME280;10381;53.730;10.010;2023-07-22T16:26:42;101745.28;;;14.65;100.00
20444;BME280;10381;53.730;10.010;2023-07-22T16:30:43;101745.50;;;14.52;100.00
20444;BME280;10381;53.730;10.010;2023-07-22T16:34:43;101752.22;;;14.37;100.00
20444;BME280;10381;53.730;10.010;2023-07-22T16:38:43;101741.22;;;14.20;100.00
20444;BME280;10381;53.730;10.010;2023-07-22T16:42:44;101745.13;;;14.16;100.00
20444;BME280;10381;53.730;10.010;2023-07-22T16:46:47;101749.16;;;14.01;100.00
20444;BME280;10381;53.730;10.010;2023-07-22T16:50:51;101733.69;;;13.95;100.00
20444;BME280;10381;53.730;10.010;2023-07-22T16:54:51;101718.94;;;13.81;100.00
20444;BME280;10381;53.730;10.010;2023-07-22T16:58:53;101728.34;;;13.85;100.00
20444;BME280;10381;53.730;10.010;2023-07-22T17:02:53;101738.03;;;13.86;100.00
20444;BME280;10381;53.730;10.010;2023-07-22T17:06:53;101734.94;;;13.81;100.00
20444;BME280;10381;53.730;10.010;2023-07-22T17:10:54;101740.50;;;13.78;100.00
20444;BME280;10381;53.730;10.010;2023-07-22T17:14:54;101760.13;;;13.77;100.00
20444;BME280;10381;53.730;10.010;2023-07-22T17:18:55;101756.75;;;13.75;100.00
20444;BME280;10381;53.730;10.010;2023-07-22T17:22:55;101754.16;;;13.63;100.00
20444;BME280;10381;53.730;10.010;2023-07-22T17:26:55;101746.50;;;13.70;100.00
20444;BME280;10381;53.730;10.010;2023-07-22T17:31:01;101739.63;;;13.68;100.00
20444;BME280;10381;53.730;10.010;2023-07-22T17:35:03;101742.91;;;13.81;100.00
20444;BME280;10381;53.730;10.010;2023-07-22T17:39:03;101759.06;;;13.89;100.00
20444;BME280;10381;53.730;10.010;2023-07-22T17:43:03;101755.88;;;13.95;100.00
20444;BME280;10381;53.730;10.010;2023-07-22T17:47:04;101754.06;;;13.96;100.00
20444;BME280;10381;53.730;10.010;2023-07-22T17:51:04;101758.28;;;13.98;100.00
20444;BME280;10381;53.730;10.010;2023-07-22T17:55:05;101771.75;;;14.06;100.00
20444;BME280;10381;53.730;10.010;2023-07-22T17:59:06;101775.41;;;14.05;100.00
20444;BME280;10381;53.730;10.010;2023-07-22T18:03:06;101766.13;;;14.00;100.00
20444;BME280;10381;53.730;10.010;2023-07-22T18:07:07;101762.00;;;13.86;100.00
20444;BME280;10381;53.730;10.010;2023-07-22T18:11:07;101759.16;;;13.78;100.00
20444;BME280;10381;53.730;10.010;2023-07-22T18:15:07;101768.97;;;13.77;100.00
20444;BME280;10381;53.730;10.010;2023-07-22T18:19:08;101760.22;;;13.66;100.00
20444;BME280;10381;53.730;10.010;2023-07-22T18:23:08;101763.47;;;13.69;100.00
20444;BME280;10381;53.730;10.010;2023-07-22T18:27:08;101756.16;;;13.61;100.00
20444;BME280;10381;53.730;10.010;2023-07-22T18:31:09;101760.88;;;13.58;100.00
20444;BME280;10381;53.730;10.010;2023-07-22T18:35:09;101759.75;;;13.60;100.00
20444;BME280;10381;53.730;10.010;2023-07-22T18:39:09;101766.78;;;13.61;100.00
20444;BME280;10381;53.730;10.010;2023-07-22T18:43:10;101772.13;;;13.61;100.00
20444;BME280;10381;53.730;10.010;2023-07-22T18:47:10;101770.97;;;13.54;100.00
20444;BME280;10381;53.730;10.010;2023-07-22T18:51:10;101766.31;;;13.56;100.00
20444;BME280;10381;53.730;10.010;2023-07-22T18:55:12;101766.13;;;13.48;100.00
20444;BME280;10381;53.730;10.010;2023-07-22T18:59:12;101771.72;;;13.45;100.00
20444;BME280;10381;53.730;10.010;2023-07-22T19:03:12;101763.16;;;13.41;100.00
20444;BME280;10381;53.730;10.010;2023-07-22T19:07:13;101761.31;;;13.42;100.00
20444;BME280;10381;53.730;10.010;2023-07-22T19:11:13;101761.31;;;13.42;100.00
20444;BME280;10381;53.730;10.010;2023-07-22T19:15:13;101757.25;;;13.38;100.00
20444;BME280;10381;53.730;10.010;2023-07-22T19:19:14;101755.44;;;13.38;100.00
20444;BME280;10381;53.730;10.010;2023-07-22T19:23:14;101760.88;;;13.37;100.00
20444;BME280;10381;53.730;10.010;2023-07-22T19:27:14;101759.19;;;13.36;100.00
20444;BME280;10381;53.730;10.010;2023-07-22T19:31:15;101761.84;;;13.36;100.00
20444;BME280;10381;53.730;10.010;2023-07-22T19:35:16;101766.19;;;13.37;100.00
20444;BME280;10381;53.730;10.010;2023-07-22T19:39:16;101769.72;;;13.37;100.00
20444;BME280;10381;53.730;10.010;2023-07-22T19:43:16;101769.84;;;13.36;100.00
20444;BME280;10381;53.730;10.010;2023-07-22T19:47:17;101781.22;;;13.38;100.00
20444;BME280;10381;53.730;10.010;2023-07-22T19:51:17;101781.22;;;13.38;100.00
20444;BME280;10381;53.730;10.010;2023-07-22T19:55:18;101784.81;;;13.37;100.00
20444;BME280;10381;53.730;10.010;2023-07-22T19:59:19;101771.53;;;13.37;100.00
20444;BME280;10381;53.730;10.010;2023-07-22T20:03:20;101764.53;;;13.36;100.00
20444;BME280;10381;53.730;10.010;2023-07-22T20:07:20;101765.63;;;13.33;100.00
20444;BME280;10381;53.730;10.010;2023-07-22T20:11:20;101754.38;;;13.30;100.00
20444;BME280;10381;53.730;10.010;2023-07-22T20:15:21;101751.13;;;13.26;100.00
20444;BME280;10381;53.730;10.010;2023-07-22T20:19:21;101742.41;;;13.24;100.00
20444;BME280;10381;53.730;10.010;2023-07-22T20:23:21;101749.09;;;13.18;100.00
20444;BME280;10381;53.730;10.010;2023-07-22T20:27:22;101734.47;;;13.13;100.00